Time;durP1;ratioP1;P1;durP2;ratioP2;P2;SDS_P1;SDS_P2;PMS_P1;PMS_P2;Temp;Humidity;BMP_temperature;BMP_pressure;BME280_temperature;BME280_humidity;BME280_pressure;Samples;Min_cycle;Max_cycle;Signal;HPM_P1;HPM_P2
2024/04/08 00:01:50;;;;;;;;;;;14.60;99.90;;;;;;4993256;28;19964;-75
2024/04/08 00:04:16;;;;;;;;;;;14.60;99.90;;;;;;5003317;28;20031;-74
2024/04/08 00:06:41;;;;;;;;;;;14.50;99.90;;;;;;4988994;28;19914;-74
2024/04/08 00:09:07;;;;;;;;;;;14.50;99.90;;;;;;4989066;28;19936;-74
2024/04/08 00:11:32;;;;;;;;;;;14.60;99.90;;;;;;4989061;28;19917;-74
2024/04/08 00:13:58;;;;;;;;;;;14.60;99.90;;;;;;5009458;28;20280;-76
2024/04/08 00:16:23;;;;;;;;;;;14.60;99.90;;;;;;5007288;28;20017;-75
2024/04/08 00:18:49;;;;;;;;;;;14.50;99.90;;;;;;4989402;28;19909;-74
2024/04/08 00:21:15;;;;;;;;;;;14.50;99.90;;;;;;5006826;28;19916;-73
2024/04/08 00:23:42;;;;;;;;;;;14.50;99.90;;;;;;4994041;28;20003;-73
2024/04/08 00:26:08;;;;;;;;;;;14.50;99.90;;;;;;5006251;28;19917;-73
2024/04/08 00:28:33;;;;;;;;;;;14.50;99.90;;;;;;5004124;28;20007;-73
2024/04/08 00:31:03;;;;;;;;;;;14.60;99.90;;;;;;5005291;28;19914;-74
2024/04/08 00:33:30;;;;;;;;;;;14.60;99.90;;;;;;5008233;28;19909;-73
2024/04/08 00:35:55;;;;;;;;;;;14.60;99.90;;;;;;5010792;28;19916;-73
2024/04/08 00:38:21;;;;;;;;;;;14.60;99.90;;;;;;5011390;28;20284;-74
2024/04/08 00:40:46;;;;;;;;;;;14.60;99.90;;;;;;5011081;28;19910;-75
2024/04/08 00:43:11;;;;;;;;;;;14.50;99.90;;;;;;5011528;28;20019;-74
2024/04/08 00:45:39;;;;;;;;;;;14.50;99.90;;;;;;5011157;28;19989;-73
2024/04/08 00:48:06;;;;;;;;;;;14.50;99.90;;;;;;5001390;28;19953;-72
2024/04/08 00:50:32;;;;;;;;;;;14.50;99.90;;;;;;5011280;28;19939;-74
2024/04/08 00:52:57;;;;;;;;;;;14.40;99.90;;;;;;5001466;28;19916;-74
2024/04/08 00:55:23;;;;;;;;;;;14.40;99.90;;;;;;4998831;28;19914;-74
2024/04/08 00:57:49;;;;;;;;;;;14.30;99.90;;;;;;5005690;28;19941;-73
2024/04/08 01:00:15;;;;;;;;;;;14.30;99.90;;;;;;5010002;28;19916;-73
2024/04/08 01:02:40;;;;;;;;;;;14.30;99.90;;;;;;4994799;28;19919;-76
2024/04/08 01:05:06;;;;;;;;;;;14.30;99.90;;;;;;4994376;28;19917;-75
2024/04/08 01:07:34;;;;;;;;;;;14.30;99.90;;;;;;4994706;28;19910;-73
2024/04/08 01:10:00;;;;;;;;;;;14.30;99.90;;;;;;4999680;28;20343;-74
2024/04/08 01:12:25;;;;;;;;;;;14.20;99.90;;;;;;4994262;28;20403;-74
2024/04/08 01:14:51;;;;;;;;;;;14.20;99.90;;;;;;4995775;28;20450;-74
2024/04/08 01:17:16;;;;;;;;;;;14.30;99.90;;;;;;4994731;28;20009;-76
2024/04/08 01:19:44;;;;;;;;;;;14.30;99.90;;;;;;5008665;28;19933;-74
2024/04/08 01:22:10;;;;;;;;;;;14.30;99.90;;;;;;5007845;28;19921;-74
2024/04/08 01:24:36;;;;;;;;;;;14.20;99.90;;;;;;4994165;28;19921;-73
2024/04/08 01:27:01;;;;;;;;;;;14.20;99.90;;;;;;4993540;28;19914;-73
2024/04/08 01:29:28;;;;;;;;;;;14.20;99.90;;;;;;4999220;28;19967;-74
2024/04/08 01:31:53;;;;;;;;;;;14.20;99.90;;;;;;5007584;28;20293;-72
2024/04/08 01:34:19;;;;;;;;;;;14.10;99.90;;;;;;5014834;28;19909;-74
2024/04/08 01:36:44;;;;;;;;;;;14.10;99.90;;;;;;5013515;28;20284;-74
2024/04/08 01:39:10;;;;;;;;;;;14.10;99.90;;;;;;5012578;28;19909;-73
2024/04/08 01:41:35;;;;;;;;;;;14.10;99.90;;;;;;5013301;28;19913;-73
2024/04/08 01:44:01;;;;;;;;;;;14.10;99.90;;;;;;5009588;28;19945;-73
2024/04/08 01:46:26;;;;;;;;;;;14.10;99.90;;;;;;5011779;28;19959;-73
2024/04/08 01:48:52;;;;;;;;;;;14.10;99.90;;;;;;5010530;28;19914;-73
2024/04/08 01:51:17;;;;;;;;;;;14.10;99.90;;;;;;5011440;28;19913;-74
2024/04/08 01:53:43;;;;;;;;;;;14.20;99.90;;;;;;5009403;28;19910;-73
2024/04/08 01:56:08;;;;;;;;;;;14.20;99.90;;;;;;5010986;28;20412;-73
2024/04/08 01:58:34;;;;;;;;;;;14.30;99.90;;;;;;5010520;28;19966;-73
2024/04/08 02:00:59;;;;;;;;;;;14.20;99.90;;;;;;5004469;28;20297;-73
2024/04/08 02:03:25;;;;;;;;;;;14.20;99.90;;;;;;5004322;28;19914;-75
2024/04/08 02:05:50;;;;;;;;;;;14.20;99.90;;;;;;4998678;28;19925;-75
2024/04/08 02:08:16;;;;;;;;;;;14.20;99.90;;;;;;5003216;28;20353;-75
2024/04/08 02:10:43;;;;;;;;;;;14.20;99.90;;;;;;4994394;28;19910;-75
2024/04/08 02:13:08;;;;;;;;;;;14.20;99.90;;;;;;5003335;28;19936;-75
2024/04/08 02:15:34;;;;;;;;;;;14.20;99.90;;;;;;5009085;28;20372;-74
2024/04/08 02:17:59;;;;;;;;;;;14.10;99.90;;;;;;5006919;28;19910;-75
2024/04/08 02:20:25;;;;;;;;;;;14.20;99.90;;;;;;4995723;28;19921;-75
2024/04/08 02:22:51;;;;;;;;;;;14.20;99.90;;;;;;5010052;28;20434;-76
2024/04/08 02:25:17;;;;;;;;;;;14.30;99.90;;;;;;5008891;28;19914;-74
2024/04/08 02:27:43;;;;;;;;;;;14.20;99.90;;;;;;5008314;28;19913;-75
2024/04/08 02:30:09;;;;;;;;;;;14.20;99.90;;;;;;5008569;28;20406;-75
2024/04/08 02:32:35;;;;;;;;;;;14.20;99.90;;;;;;5008544;28;19952;-74
2024/04/08 02:35:01;;;;;;;;;;;14.20;99.90;;;;;;4992861;28;19909;-73
2024/04/08 02:37:26;;;;;;;;;;;14.10;99.90;;;;;;5003570;28;20007;-75
2024/04/08 02:39:52;;;;;;;;;;;14.10;99.90;;;;;;5009174;28;19918;-75
2024/04/08 02:42:17;;;;;;;;;;;14.10;99.90;;;;;;5005538;28;19920;-74
2024/04/08 02:44:43;;;;;;;;;;;14.10;99.90;;;;;;5007587;28;19963;-75
2024/04/08 02:47:08;;;;;;;;;;;14.00;99.90;;;;;;5009996;28;20288;-74
2024/04/08 02:49:34;;;;;;;;;;;14.00;99.90;;;;;;4995024;28;20004;-74
2024/04/08 02:51:59;;;;;;;;;;;14.00;99.90;;;;;;5008647;28;19951;-74
2024/04/08 02:54:25;;;;;;;;;;;14.00;99.90;;;;;;5007222;28;19977;-75
2024/04/08 02:56:50;;;;;;;;;;;14.00;99.90;;;;;;5008134;28;19909;-73
2024/04/08 02:59:16;;;;;;;;;;;14.00;99.90;;;;;;5002192;28;19909;-75
2024/04/08 03:01:41;;;;;;;;;;;14.10;99.90;;;;;;4998136;28;20385;-75
2024/04/08 03:04:07;;;;;;;;;;;14.00;99.90;;;;;;4995069;28;19913;-74
2024/04/08 03:06:32;;;;;;;;;;;14.00;99.90;;;;;;5000160;28;20369;-73
2024/04/08 03:08:58;;;;;;;;;;;14.20;99.90;;;;;;4995548;28;20013;-75
2024/04/08 03:11:23;;;;;;;;;;;14.20;99.90;;;;;;4989848;28;19918;-75
2024/04/08 03:13:50;;;;;;;;;;;14.20;99.90;;;;;;4991231;28;19910;-74
2024/04/08 03:16:16;;;;;;;;;;;14.20;99.90;;;;;;4989974;28;19921;-75
2024/04/08 03:18:41;;;;;;;;;;;14.20;99.90;;;;;;4989757;28;20008;-74
2024/04/08 03:21:07;;;;;;;;;;;14.10;99.90;;;;;;4991395;28;20373;-73
2024/04/08 03:23:32;;;;;;;;;;;14.10;99.90;;;;;;4989989;28;19917;-76
2024/04/08 03:26:06;;;;;;;;;;;14.20;99.90;;;;;;4990698;28;19939;-76
2024/04/08 03:28:32;;;;;;;;;;;14.30;99.90;;;;;;4991771;28;19920;-75
2024/04/08 03:30:57;;;;;;;;;;;14.20;99.90;;;;;;4991720;28;20009;-74
2024/04/08 03:33:24;;;;;;;;;;;14.20;99.90;;;;;;4991870;28;19914;-74
2024/04/08 03:35:50;;;;;;;;;;;14.10;99.90;;;;;;4991086;28;19933;-75
2024/04/08 03:38:15;;;;;;;;;;;14.00;99.90;;;;;;4991443;28;20284;-75
2024/04/08 03:40:41;;;;;;;;;;;14.10;99.90;;;;;;4989490;28;19917;-73
2024/04/08 03:43:07;;;;;;;;;;;14.10;99.90;;;;;;4989527;28;19910;-74
2024/04/08 03:45:32;;;;;;;;;;;14.00;99.90;;;;;;4990374;28;19922;-73
2024/04/08 03:47:58;;;;;;;;;;;14.00;99.90;;;;;;4989621;28;20397;-74
2024/04/08 03:50:27;;;;;;;;;;;13.80;99.90;;;;;;4988733;28;19914;-75
2024/04/08 03:52:52;;;;;;;;;;;13.60;99.90;;;;;;4977202;28;20361;-74
2024/04/08 03:55:18;;;;;;;;;;;13.30;99.90;;;;;;5003406;28;19935;-74
2024/04/08 03:57:44;;;;;;;;;;;13.10;99.90;;;;;;5009221;28;19920;-74
2024/04/08 04:00:09;;;;;;;;;;;13.00;99.90;;;;;;5009256;28;19909;-75
2024/04/08 04:02:35;;;;;;;;;;;13.00;99.90;;;;;;4976350;28;19910;-73
2024/04/08 04:05:00;;;;;;;;;;;12.90;99.90;;;;;;4988471;28;19971;-75
2024/04/08 04:07:26;;;;;;;;;;;12.90;99.90;;;;;;4988000;28;19910;-74
2024/04/08 04:09:51;;;;;;;;;;;12.90;99.90;;;;;;4989815;28;19917;-74
2024/04/08 04:12:17;;;;;;;;;;;12.90;99.90;;;;;;4990252;28;19918;-75
2024/04/08 04:14:42;;;;;;;;;;;12.70;99.90;;;;;;4990089;28;19917;-74
2024/04/08 04:17:08;;;;;;;;;;;12.70;99.90;;;;;;4991544;28;20383;-74
2024/04/08 04:19:34;;;;;;;;;;;12.60;99.90;;;;;;4989045;28;20288;-74
2024/04/08 04:21:59;;;;;;;;;;;12.60;99.90;;;;;;4988230;28;19939;-73
2024/04/08 04:24:25;;;;;;;;;;;12.50;99.90;;;;;;4989195;28;19910;-74
2024/04/08 04:26:50;;;;;;;;;;;12.50;99.90;;;;;;4990258;28;19914;-74
2024/04/08 04:29:15;;;;;;;;;;;12.50;99.90;;;;;;4989932;28;19910;-74
2024/04/08 04:31:42;;;;;;;;;;;12.40;99.90;;;;;;4996211;28;20455;-75
2024/04/08 04:34:08;;;;;;;;;;;12.50;99.90;;;;;;4997800;28;19910;-74
2024/04/08 04:36:33;;;;;;;;;;;12.60;99.90;;;;;;4993626;28;19936;-72
2024/04/08 04:38:59;;;;;;;;;;;12.80;99.90;;;;;;4996792;28;19920;-74
2024/04/08 04:41:24;;;;;;;;;;;12.80;99.90;;;;;;5010902;28;19916;-74
2024/04/08 04:43:50;;;;;;;;;;;12.70;99.90;;;;;;4999028;28;19914;-74
2024/04/08 04:46:15;;;;;;;;;;;12.70;99.90;;;;;;4992293;28;19914;-73
2024/04/08 04:48:41;;;;;;;;;;;12.70;99.90;;;;;;5002503;28;19909;-75
2024/04/08 04:51:07;;;;;;;;;;;12.70;99.90;;;;;;5008864;28;19917;-74
2024/04/08 04:53:32;;;;;;;;;;;12.80;99.90;;;;;;4996416;28;19914;-75
2024/04/08 04:55:58;;;;;;;;;;;12.80;99.90;;;;;;5001939;28;19910;-74
2024/04/08 04:58:23;;;;;;;;;;;12.80;99.90;;;;;;4990004;28;19917;-74
2024/04/08 05:00:49;;;;;;;;;;;12.90;99.90;;;;;;4989397;28;19910;-75
2024/04/08 05:03:15;;;;;;;;;;;13.00;99.90;;;;;;4989753;28;19910;-75
2024/04/08 05:05:40;;;;;;;;;;;13.10;99.90;;;;;;4989322;28;19918;-74
2024/04/08 05:08:06;;;;;;;;;;;13.20;99.90;;;;;;4988247;28;20008;-74
2024/04/08 05:10:32;;;;;;;;;;;13.20;99.90;;;;;;4987459;28;19963;-76
2024/04/08 05:12:57;;;;;;;;;;;13.20;99.90;;;;;;4987838;28;20388;-75
2024/04/08 05:15:23;;;;;;;;;;;13.30;99.90;;;;;;4987837;28;20342;-75
2024/04/08 05:19:28;;;;;;;;;;;13.30;99.90;;;;;;5433532;26;19929;-75
2024/04/08 05:21:54;;;;;;;;;;;13.40;99.90;;;;;;5431094;26;19935;-73
2024/04/08 05:24:19;;;;;;;;;;;13.40;99.90;;;;;;5434422;26;20369;-74
2024/04/08 05:26:45;;;;;;;;;;;13.50;99.90;;;;;;5430330;26;20042;-75
2024/04/08 05:29:10;;;;;;;;;;;13.70;99.90;;;;;;5424919;26;19965;-75
2024/04/08 05:31:36;;;;;;;;;;;13.80;99.90;;;;;;5432678;26;19940;-73
2024/04/08 05:34:01;;;;;;;;;;;13.80;99.90;;;;;;5432958;26;20302;-74
2024/04/08 05:36:27;;;;;;;;;;;13.80;99.90;;;;;;5398913;26;19936;-75
2024/04/08 05:38:52;;;;;;;;;;;13.70;99.90;;;;;;5396623;26;20328;-74
2024/04/08 05:41:19;;;;;;;;;;;13.70;99.90;;;;;;5395409;26;20292;-75
2024/04/08 05:43:44;;;;;;;;;;;13.70;99.90;;;;;;5386706;26;20004;-73
2024/04/08 05:46:10;;;;;;;;;;;13.70;99.90;;;;;;5410363;26;19969;-75
2024/04/08 05:48:35;;;;;;;;;;;13.80;99.90;;;;;;5380157;26;20022;-75
2024/04/08 05:51:02;;;;;;;;;;;13.80;99.90;;;;;;5403118;26;19936;-74
2024/04/08 05:53:27;;;;;;;;;;;13.80;99.90;;;;;;5371889;26;19962;-74
2024/04/08 05:55:52;;;;;;;;;;;13.90;99.90;;;;;;5374018;26;19929;-74
2024/04/08 05:58:18;;;;;;;;;;;14.00;99.90;;;;;;5387229;26;19929;-74
2024/04/08 06:00:45;;;;;;;;;;;14.00;99.90;;;;;;5400643;26;19936;-74
2024/04/08 06:03:10;;;;;;;;;;;14.10;99.90;;;;;;5390658;26;19961;-74
2024/04/08 06:05:40;;;;;;;;;;;14.30;99.90;;;;;;5409137;26;20366;-74
2024/04/08 06:08:06;;;;;;;;;;;14.40;99.90;;;;;;5417789;26;19933;-74
2024/04/08 06:10:34;;;;;;;;;;;14.50;99.90;;;;;;5417261;26;20325;-74
2024/04/08 06:12:59;;;;;;;;;;;14.60;99.90;;;;;;5404184;26;19930;-75
2024/04/08 06:15:25;;;;;;;;;;;14.60;99.90;;;;;;5420227;26;19956;-74
2024/04/08 06:17:51;;;;;;;;;;;14.60;99.90;;;;;;5417667;26;19936;-73
2024/04/08 06:20:17;;;;;;;;;;;14.60;99.90;;;;;;5400451;26;19929;-75
2024/04/08 06:22:43;;;;;;;;;;;14.70;99.90;;;;;;5399204;26;19936;-73
2024/04/08 06:25:09;;;;;;;;;;;14.70;99.90;;;;;;5402302;26;19937;-74
2024/04/08 06:27:35;;;;;;;;;;;14.80;99.90;;;;;;5400587;26;19937;-72
2024/04/08 06:30:00;;;;;;;;;;;14.80;99.90;;;;;;5390382;26;19970;-75
2024/04/08 06:32:26;;;;;;;;;;;14.80;99.90;;;;;;5396397;26;19937;-75
2024/04/08 06:34:51;;;;;;;;;;;14.90;99.90;;;;;;5362597;26;19971;-75
2024/04/08 06:37:17;;;;;;;;;;;15.10;99.90;;;;;;5357573;26;19942;-73
2024/04/08 06:39:43;;;;;;;;;;;15.20;99.90;;;;;;5367820;26;20513;-73
2024/04/08 06:42:18;;;;;;;;;;;15.30;99.90;;;;;;5371905;26;19929;-73
2024/04/08 06:44:48;;;;;;;;;;;15.30;99.90;;;;;;5413009;26;19940;-73
2024/04/08 06:47:14;;;;;;;;;;;15.40;99.90;;;;;;5383215;26;19937;-73
2024/04/08 06:49:40;;;;;;;;;;;15.50;99.90;;;;;;5379143;26;20427;-75
2024/04/08 06:52:05;;;;;;;;;;;15.80;99.90;;;;;;5384792;26;19929;-73
2024/04/08 06:54:31;;;;;;;;;;;16.10;99.90;;;;;;5380500;26;19979;-73
2024/04/08 06:56:56;;;;;;;;;;;16.40;99.90;;;;;;5378935;26;20329;-73
2024/04/08 06:59:24;;;;;;;;;;;16.60;99.90;;;;;;5392761;26;19999;-73
2024/04/08 07:01:50;;;;;;;;;;;16.80;99.90;;;;;;5379282;26;19936;-73
2024/04/08 07:04:19;;;;;;;;;;;16.90;99.90;;;;;;5386231;26;19929;-73
2024/04/08 07:06:45;;;;;;;;;;;17.00;99.90;;;;;;5379812;26;19930;-74
2024/04/08 07:09:10;;;;;;;;;;;17.10;99.90;;;;;;5370462;26;19940;-74
2024/04/08 07:11:36;;;;;;;;;;;17.30;99.90;;;;;;5383387;26;20276;-72
2024/04/08 07:14:01;;;;;;;;;;;17.50;99.90;;;;;;5370439;26;19937;-73
2024/04/08 07:16:27;;;;;;;;;;;17.50;99.90;;;;;;5376816;26;20449;-73
2024/04/08 07:18:52;;;;;;;;;;;17.50;99.90;;;;;;5388378;26;20001;-73
2024/04/08 07:21:18;;;;;;;;;;;17.80;99.90;;;;;;5385046;26;19940;-74
2024/04/08 07:23:43;;;;;;;;;;;18.10;99.90;;;;;;5389142;26;20377;-73
2024/04/08 07:26:09;;;;;;;;;;;18.40;99.90;;;;;;5387031;26;19929;-73
2024/04/08 07:28:34;;;;;;;;;;;18.40;99.90;;;;;;5380369;26;19975;-74
2024/04/08 07:31:00;;;;;;;;;;;18.70;99.90;;;;;;5386767;26;19979;-73
2024/04/08 07:33:26;;;;;;;;;;;18.90;99.90;;;;;;5383097;26;19944;-72
2024/04/08 07:35:51;;;;;;;;;;;19.20;99.90;;;;;;5378008;26;19941;-72
2024/04/08 07:38:16;;;;;;;;;;;19.20;99.90;;;;;;5382057;26;19930;-73
2024/04/08 07:40:43;;;;;;;;;;;19.20;99.90;;;;;;5375671;26;21662;-73
2024/04/08 07:43:08;;;;;;;;;;;19.10;99.90;;;;;;5387225;26;19936;-73
2024/04/08 07:45:34;;;;;;;;;;;19.00;99.90;;;;;;5376506;26;19949;-75
2024/04/08 07:47:59;;;;;;;;;;;19.10;99.90;;;;;;5386194;26;20280;-74
2024/04/08 07:50:25;;;;;;;;;;;19.20;99.90;;;;;;5368459;26;19935;-73
2024/04/08 07:52:50;;;;;;;;;;;19.20;99.90;;;;;;5376954;26;19947;-73
2024/04/08 07:55:15;;;;;;;;;;;19.20;99.90;;;;;;5377646;26;19941;-71
2024/04/08 07:57:41;;;;;;;;;;;19.20;99.90;;;;;;5384072;26;19930;-73
2024/04/08 08:00:07;;;;;;;;;;;19.30;99.90;;;;;;5377138;26;20380;-73
2024/04/08 08:02:34;;;;;;;;;;;19.70;99.90;;;;;;5385676;26;19930;-74
2024/04/08 08:04:59;;;;;;;;;;;20.00;99.90;;;;;;5375742;26;19941;-71
2024/04/08 08:07:25;;;;;;;;;;;20.30;99.90;;;;;;5392068;26;19941;-73
2024/04/08 08:09:50;;;;;;;;;;;20.50;99.90;;;;;;5380547;26;19929;-73
2024/04/08 08:12:19;;;;;;;;;;;20.90;99.90;;;;;;5386478;26;19968;-72
2024/04/08 08:14:46;;;;;;;;;;;21.30;99.90;;;;;;5379985;26;19929;-71
2024/04/08 08:17:11;;;;;;;;;;;21.50;99.90;;;;;;5383257;26;19964;-72
2024/04/08 08:19:37;;;;;;;;;;;21.90;99.90;;;;;;5380219;26;19941;-71
2024/04/08 08:22:03;;;;;;;;;;;23.00;99.90;;;;;;5386797;26;19941;-72
2024/04/08 08:24:29;;;;;;;;;;;24.20;99.90;;;;;;5382532;26;19941;-71
2024/04/08 08:26:56;;;;;;;;;;;25.50;99.90;;;;;;5378451;26;19936;-71
2024/04/08 08:29:21;;;;;;;;;;;26.60;99.90;;;;;;5379934;26;19929;-71
2024/04/08 08:31:47;;;;;;;;;;;27.20;99.90;;;;;;5390766;26;19929;-71
2024/04/08 08:34:12;;;;;;;;;;;27.10;99.90;;;;;;5381144;26;19940;-72
2024/04/08 08:36:38;;;;;;;;;;;26.60;99.90;;;;;;5372179;26;19942;-71
2024/04/08 08:39:04;;;;;;;;;;;26.70;99.90;;;;;;5382841;26;19981;-70
2024/04/08 08:41:30;;;;;;;;;;;26.80;99.90;;;;;;5381220;26;19930;-70
2024/04/08 08:44:00;;;;;;;;;;;26.50;99.90;;;;;;5384708;26;19944;-71
2024/04/08 08:46:27;;;;;;;;;;;26.20;99.90;;;;;;5373691;26;20432;-70
2024/04/08 08:48:53;;;;;;;;;;;25.70;99.90;;;;;;5373302;26;19930;-72
2024/04/08 08:51:20;;;;;;;;;;;26.10;99.90;;;;;;5376408;26;20364;-71
2024/04/08 08:53:45;;;;;;;;;;;27.50;99.90;;;;;;5382665;26;19941;-72
2024/04/08 08:56:13;;;;;;;;;;;28.60;99.90;;;;;;5381519;26;19941;-72
2024/04/08 08:58:39;;;;;;;;;;;29.00;99.80;;;;;;5385066;26;19953;-72
2024/04/08 09:01:07;;;;;;;;;;;29.30;98.40;;;;;;5384188;26;20317;-71
2024/04/08 09:03:33;;;;;;;;;;;29.60;96.80;;;;;;5374805;26;19957;-72
2024/04/08 09:05:59;;;;;;;;;;;29.80;96.20;;;;;;5384776;26;19930;-71
2024/04/08 09:08:24;;;;;;;;;;;30.20;95.00;;;;;;5379561;26;19979;-71
2024/04/08 09:10:50;;;;;;;;;;;29.90;95.00;;;;;;5386611;26;19929;-71
2024/04/08 09:13:22;;;;;;;;;;;28.70;96.30;;;;;;5378835;26;19995;-71
2024/04/08 09:15:49;;;;;;;;;;;27.30;97.90;;;;;;5375876;26;19941;-70
2024/04/08 09:18:16;;;;;;;;;;;26.10;99.30;;;;;;5381802;26;19929;-71
2024/04/08 09:20:41;;;;;;;;;;;25.10;99.90;;;;;;5389760;26;19929;-70
2024/04/08 09:23:07;;;;;;;;;;;24.30;99.90;;;;;;5376215;26;19937;-71
2024/04/08 09:25:33;;;;;;;;;;;23.70;99.90;;;;;;5384856;26;20414;-72
2024/04/08 09:27:59;;;;;;;;;;;23.30;99.90;;;;;;5381451;26;19930;-73
2024/04/08 09:30:24;;;;;;;;;;;22.90;99.90;;;;;;5374049;26;19999;-73
2024/04/08 09:32:51;;;;;;;;;;;22.70;99.90;;;;;;5380212;26;20016;-72
2024/04/08 09:35:16;;;;;;;;;;;22.60;99.90;;;;;;5385716;26;19934;-72
2024/04/08 09:37:42;;;;;;;;;;;22.40;99.90;;;;;;5382532;26;20445;-72
2024/04/08 09:40:11;;;;;;;;;;;22.20;99.90;;;;;;5382934;26;19929;-72
2024/04/08 09:42:36;;;;;;;;;;;22.10;99.90;;;;;;5381987;26;19953;-72
2024/04/08 09:45:02;;;;;;;;;;;22.30;99.90;;;;;;5384145;26;19935;-72
2024/04/08 09:47:29;;;;;;;;;;;22.20;99.90;;;;;;5376482;26;20377;-72
2024/04/08 09:49:55;;;;;;;;;;;22.30;99.90;;;;;;5371074;26;19937;-72
2024/04/08 09:52:21;;;;;;;;;;;22.20;99.90;;;;;;5382508;26;19929;-71
2024/04/08 09:54:46;;;;;;;;;;;22.00;99.90;;;;;;5385517;26;19939;-72
2024/04/08 09:57:14;;;;;;;;;;;21.80;99.90;;;;;;5379753;26;19936;-72
2024/04/08 09:59:41;;;;;;;;;;;21.90;99.90;;;;;;5362632;26;19937;-72
2024/04/08 10:02:17;;;;;;;;;;;22.10;99.90;;;;;;5375230;26;20276;-73
2024/04/08 10:04:43;;;;;;;;;;;22.10;99.90;;;;;;5376671;26;19944;-72
2024/04/08 10:07:09;;;;;;;;;;;22.30;99.90;;;;;;5383803;26;19968;-72
2024/04/08 10:09:34;;;;;;;;;;;22.40;99.90;;;;;;5381026;26;19929;-71
2024/04/08 10:12:01;;;;;;;;;;;22.30;99.90;;;;;;5391951;26;19929;-72
2024/04/08 10:14:28;;;;;;;;;;;22.30;99.90;;;;;;5381683;26;19962;-72
2024/04/08 10:16:57;;;;;;;;;;;22.40;99.90;;;;;;5388087;26;19933;-71
2024/04/08 10:19:23;;;;;;;;;;;22.30;99.90;;;;;;5372494;26;19929;-71
2024/04/08 10:21:52;;;;;;;;;;;22.40;99.90;;;;;;5396377;26;19935;-71
2024/04/08 10:24:47;;;;;;;;;;;22.40;99.90;;;;;;5381103;26;20390;-70
2024/04/08 10:27:12;;;;;;;;;;;22.50;99.90;;;;;;5377388;26;19936;-72
2024/04/08 10:29:38;;;;;;;;;;;22.60;99.90;;;;;;5378738;26;19934;-72
2024/04/08 10:32:04;;;;;;;;;;;22.50;99.90;;;;;;5388447;26;20010;-72
2024/04/08 10:34:30;;;;;;;;;;;22.40;99.90;;;;;;5381172;26;19941;-70
2024/04/08 10:36:55;;;;;;;;;;;22.40;99.90;;;;;;5381615;26;19999;-72
2024/04/08 10:39:26;;;;;;;;;;;22.20;99.90;;;;;;5378672;26;20498;-73
2024/04/08 10:41:55;;;;;;;;;;;22.00;99.90;;;;;;5391758;26;19933;-71
2024/04/08 10:44:20;;;;;;;;;;;21.90;99.90;;;;;;5405562;26;19933;-71
2024/04/08 10:46:46;;;;;;;;;;;21.70;99.90;;;;;;5396739;26;19937;-71
2024/04/08 10:49:11;;;;;;;;;;;21.50;99.90;;;;;;5388604;26;20369;-72
2024/04/08 10:51:37;;;;;;;;;;;21.40;99.90;;;;;;5389158;26;19930;-72
2024/04/08 10:54:02;;;;;;;;;;;21.50;99.90;;;;;;5384156;26;19941;-71
2024/04/08 10:56:28;;;;;;;;;;;21.30;99.90;;;;;;5378406;26;19945;-72
2024/04/08 10:58:54;;;;;;;;;;;20.80;99.90;;;;;;5390420;26;19937;-72
2024/04/08 11:01:20;;;;;;;;;;;20.40;99.90;;;;;;5381286;26;20009;-72
2024/04/08 11:03:46;;;;;;;;;;;19.90;99.90;;;;;;5377960;26;20381;-73
2024/04/08 11:06:12;;;;;;;;;;;19.60;99.90;;;;;;5380547;26;19934;-72
2024/04/08 11:08:38;;;;;;;;;;;19.10;99.90;;;;;;5379633;26;19949;-73
2024/04/08 11:11:05;;;;;;;;;;;18.80;99.90;;;;;;5376144;26;19937;-72
2024/04/08 11:13:30;;;;;;;;;;;18.80;99.90;;;;;;5367463;26;20314;-73
2024/04/08 11:15:56;;;;;;;;;;;18.60;99.90;;;;;;5382693;26;19958;-73
2024/04/08 11:18:21;;;;;;;;;;;18.40;99.90;;;;;;5379970;26;19952;-73
2024/04/08 11:20:47;;;;;;;;;;;18.30;99.90;;;;;;5380523;26;19936;-74
2024/04/08 11:23:14;;;;;;;;;;;18.20;99.90;;;;;;5387884;26;19940;-73
2024/04/08 11:25:39;;;;;;;;;;;18.00;99.90;;;;;;5384817;26;19992;-73
2024/04/08 11:28:05;;;;;;;;;;;18.00;99.90;;;;;;5377776;26;20361;-73
2024/04/08 11:30:35;;;;;;;;;;;18.00;99.90;;;;;;5378995;26;19937;-73
2024/04/08 11:33:02;;;;;;;;;;;18.00;99.90;;;;;;5379240;26;19937;-73
2024/04/08 11:35:28;;;;;;;;;;;18.10;99.90;;;;;;5383536;26;19936;-73
2024/04/08 11:37:54;;;;;;;;;;;18.10;99.90;;;;;;5378050;26;20024;-73
2024/04/08 11:40:19;;;;;;;;;;;18.10;99.90;;;;;;5380248;26;19930;-74
2024/04/08 11:42:45;;;;;;;;;;;18.10;99.90;;;;;;5383237;26;19929;-73
2024/04/08 11:45:10;;;;;;;;;;;18.10;99.90;;;;;;5383496;26;19999;-71
2024/04/08 11:47:36;;;;;;;;;;;18.00;99.90;;;;;;5384079;26;19977;-73
2024/04/08 11:50:03;;;;;;;;;;;17.90;99.90;;;;;;5378037;26;20003;-73
2024/04/08 11:52:29;;;;;;;;;;;18.00;99.90;;;;;;5381901;26;19929;-73
2024/04/08 11:54:54;;;;;;;;;;;18.10;99.90;;;;;;5375538;26;20320;-72
2024/04/08 11:57:20;;;;;;;;;;;18.10;99.90;;;;;;5379198;26;19929;-73
2024/04/08 11:59:45;;;;;;;;;;;18.20;99.90;;;;;;5365095;26;20248;-73
2024/04/08 12:02:11;;;;;;;;;;;18.20;99.90;;;;;;5371682;26;19929;-73
2024/04/08 12:04:36;;;;;;;;;;;18.20;99.90;;;;;;5381309;26;19937;-73
2024/04/08 12:07:05;;;;;;;;;;;18.30;99.90;;;;;;5381558;26;19944;-73
2024/04/08 12:09:30;;;;;;;;;;;18.50;99.90;;;;;;5387604;26;20480;-73
2024/04/08 12:11:56;;;;;;;;;;;18.50;99.90;;;;;;5388162;26;19929;-73
2024/04/08 12:14:22;;;;;;;;;;;18.50;99.90;;;;;;5378997;26;19937;-74
2024/04/08 12:16:48;;;;;;;;;;;18.50;99.90;;;;;;5389718;26;19929;-73
2024/04/08 12:19:13;;;;;;;;;;;18.60;99.90;;;;;;5373521;26;20602;-72
2024/04/08 12:21:39;;;;;;;;;;;18.80;99.90;;;;;;5382429;26;19929;-72
2024/04/08 12:24:04;;;;;;;;;;;19.00;99.90;;;;;;5376022;26;19929;-72
2024/04/08 12:26:30;;;;;;;;;;;19.10;99.90;;;;;;5385416;26;19936;-72
2024/04/08 12:28:56;;;;;;;;;;;19.20;99.90;;;;;;5379044;26;19929;-72
2024/04/08 12:31:21;;;;;;;;;;;19.40;99.90;;;;;;5376110;26;19930;-72
2024/04/08 12:33:47;;;;;;;;;;;19.50;99.90;;;;;;5380758;26;19938;-72
2024/04/08 12:36:13;;;;;;;;;;;19.80;99.90;;;;;;5378080;26;19957;-71
2024/04/08 12:38:39;;;;;;;;;;;20.00;99.90;;;;;;5381119;26;20438;-73
2024/04/08 12:41:04;;;;;;;;;;;20.30;99.90;;;;;;5381537;26;19998;-71
2024/04/08 12:43:30;;;;;;;;;;;20.50;99.90;;;;;;5381833;26;19999;-72
2024/04/08 12:45:55;;;;;;;;;;;20.70;99.90;;;;;;5379062;26;19937;-71
2024/04/08 12:48:21;;;;;;;;;;;20.90;99.90;;;;;;5374320;26;19957;-70
2024/04/08 12:50:47;;;;;;;;;;;21.20;99.90;;;;;;5373374;26;19976;-72
2024/04/08 12:53:13;;;;;;;;;;;21.30;99.90;;;;;;5364025;26;20349;-72
2024/04/08 12:55:39;;;;;;;;;;;21.30;99.90;;;;;;5375626;26;19966;-71
2024/04/08 12:58:09;;;;;;;;;;;21.40;99.90;;;;;;5377428;26;20057;-71
2024/04/08 13:00:34;;;;;;;;;;;21.60;99.90;;;;;;5384368;26;19932;-71
2024/04/08 13:03:00;;;;;;;;;;;21.80;99.90;;;;;;5387251;26;19937;-71
2024/04/08 13:05:25;;;;;;;;;;;22.00;99.90;;;;;;5374925;26;20364;-70
2024/04/08 13:07:51;;;;;;;;;;;22.10;99.90;;;;;;5379042;26;19929;-71
2024/04/08 13:10:16;;;;;;;;;;;22.10;99.90;;;;;;5374812;26;19933;-72
2024/04/08 13:12:42;;;;;;;;;;;22.10;99.90;;;;;;5377841;26;20270;-71
2024/04/08 13:15:07;;;;;;;;;;;22.10;99.90;;;;;;5375943;26;19937;-75
2024/04/08 13:17:33;;;;;;;;;;;22.20;99.90;;;;;;5380020;26;19930;-71
2024/04/08 13:19:58;;;;;;;;;;;22.30;99.90;;;;;;5377509;26;20403;-71
2024/04/08 13:22:24;;;;;;;;;;;22.30;99.90;;;;;;5376638;26;19998;-71
2024/04/08 13:24:49;;;;;;;;;;;22.40;99.90;;;;;;5370532;26;20348;-71
2024/04/08 13:27:15;;;;;;;;;;;22.60;99.90;;;;;;5376080;26;19929;-72
2024/04/08 13:29:40;;;;;;;;;;;22.90;99.90;;;;;;5382870;26;20444;-72
2024/04/08 13:32:06;;;;;;;;;;;22.90;99.90;;;;;;5379133;26;19930;-72
2024/04/08 13:34:32;;;;;;;;;;;23.10;99.90;;;;;;5389312;26;19928;-72
2024/04/08 13:36:57;;;;;;;;;;;23.10;99.90;;;;;;5376016;26;19937;-73
2024/04/08 13:39:23;;;;;;;;;;;23.10;99.90;;;;;;5393369;26;19948;-73
2024/04/08 13:41:48;;;;;;;;;;;23.00;99.90;;;;;;5379316;26;19930;-73
2024/04/08 13:44:14;;;;;;;;;;;22.90;99.90;;;;;;5390617;26;19941;-72
2024/04/08 13:46:41;;;;;;;;;;;22.70;99.90;;;;;;5384610;26;19936;-72
2024/04/08 13:49:06;;;;;;;;;;;22.70;99.90;;;;;;5384763;26;19930;-71
2024/04/08 13:51:32;;;;;;;;;;;22.80;99.90;;;;;;5383542;26;19936;-72
2024/04/08 13:53:57;;;;;;;;;;;22.80;99.90;;;;;;5385894;26;19944;-73
2024/04/08 13:56:24;;;;;;;;;;;22.90;99.90;;;;;;5381313;26;19933;-73
2024/04/08 13:58:51;;;;;;;;;;;22.90;99.90;;;;;;5377317;26;19986;-73
2024/04/08 14:01:17;;;;;;;;;;;22.90;99.90;;;;;;5383897;26;19945;-73
2024/04/08 14:03:42;;;;;;;;;;;22.90;99.90;;;;;;5384345;26;19934;-72
2024/04/08 14:06:08;;;;;;;;;;;22.70;99.90;;;;;;5382188;26;20006;-72
2024/04/08 14:08:37;;;;;;;;;;;22.70;99.90;;;;;;5382439;26;20009;-71
2024/04/08 14:11:03;;;;;;;;;;;22.70;99.90;;;;;;5376016;26;19929;-72